Time;durP1;ratioP1;P1;durP2;ratioP2;P2;SDS_P1;SDS_P2;PMS_P1;PMS_P2;Temp;Humidity;BMP_temperature;BMP_pressure;BME280_temperature;BME280_humidity;BME280_pressure;Samples;Min_cycle;Max_cycle;Signal;HPM_P1;HPM_P2
2021/11/17 02:27:38;;;;;;;23.38;11.65;;;;;;;4.21;100.00;101274.69;5011232;28;20053;-78
2021/11/17 02:30:18;;;;;;;27.90;14.13;;;;;;;4.19;100.00;101273.78;5017379;28;20567;-83
2021/11/17 02:33:09;;;;;;;19.48;10.43;;;;;;;4.19;100.00;101277.25;5036533;28;20395;-79
2021/11/17 02:36:08;;;;;;;22.33;11.55;;;;;;;4.20;100.00;101272.94;4987250;28;20060;-82
2021/11/17 02:39:09;;;;;;;20.52;12.27;;;;;;;4.17;100.00;101268.53;5007348;28;20042;-81
2021/11/17 02:42:17;;;;;;;21.35;12.45;;;;;;;4.19;100.00;101266.00;5034720;28;20033;-85
2021/11/17 02:44:57;;;;;;;26.02;11.77;;;;;;;4.19;100.00;101264.28;4999313;28;20045;-81
2021/11/17 02:48:05;;;;;;;26.20;11.63;;;;;;;4.19;100.00;101251.34;5057594;28;20033;-81
2021/11/17 02:50:41;;;;;;;23.10;11.73;;;;;;;4.20;99.29;101263.47;5032073;28;20041;-85
2021/11/17 02:53:35;;;;;;;22.92;11.85;;;;;;;4.21;97.67;101260.03;5042371;28;20049;-85
2021/11/17 02:56:37;;;;;;;23.02;11.30;;;;;;;4.18;97.73;101259.94;5011783;28;20050;-81
2021/11/17 02:59:26;;;;;;;20.85;11.27;;;;;;;4.18;97.78;101256.47;5025130;28;20063;-81
2021/11/17 03:02:23;;;;;;;19.63;10.32;;;;;;;4.20;97.07;101250.50;5022861;28;20065;-78
2021/11/17 03:05:44;;;;;;;17.10;9.75;;;;;;;4.15;97.91;101257.28;5018982;28;20042;-81
2021/11/17 03:09:05;;;;;;;16.52;10.05;;;;;;;4.15;97.84;101267.63;4973649;28;20050;-77
2021/11/17 03:12:03;;;;;;;18.63;9.40;;;;;;;4.15;96.79;101259.88;5027610;28;20412;-81
2021/11/17 03:15:17;;;;;;;14.93;8.55;;;;;;;4.11;95.90;101255.44;5012597;28;20060;-78
2021/11/17 03:18:06;;;;;;;14.57;7.77;;;;;;;4.08;96.01;101245.88;5019835;28;20053;-80
2021/11/17 03:21:08;;;;;;;16.83;8.77;;;;;;;4.05;95.86;101238.00;4991997;28;20322;-78
2021/11/17 03:23:49;;;;;;;13.98;8.48;;;;;;;3.99;96.56;101240.44;5020067;28;20044;-79
2021/11/17 03:26:24;;;;;;;19.05;9.18;;;;;;;3.98;97.02;101233.50;4999887;28;20506;-77
2021/11/17 03:29:18;;;;;;;16.83;9.07;;;;;;;3.98;97.43;101231.78;5016056;28;20053;-79
2021/11/17 03:32:28;;;;;;;16.02;7.65;;;;;;;3.96;97.09;101232.56;5002592;28;20050;-80
2021/11/17 03:35:31;;;;;;;17.63;8.80;;;;;;;3.91;97.56;101240.22;5011586;28;20041;-82
2021/11/17 03:38:27;;;;;;;17.33;9.15;;;;;;;3.88;98.46;101239.25;4999401;28;20057;-77
2021/11/17 03:41:16;;;;;;;21.25;8.43;;;;;;;3.87;98.47;101235.81;5018605;28;20049;-80
2021/11/17 03:44:07;;;;;;;20.30;10.10;;;;;;;3.85;98.68;101228.81;5018816;28;20886;-80
2021/11/17 03:47:07;;;;;;;18.13;8.98;;;;;;;3.82;99.37;101234.78;5032691;28;20046;-81
2021/11/17 03:50:26;;;;;;;18.60;9.27;;;;;;;3.79;99.27;101235.59;5018544;28;20049;-81
2021/11/17 03:53:36;;;;;;;22.13;11.35;;;;;;;3.77;99.82;101244.16;5002699;28;20057;-82
2021/11/17 03:57:09;;;;;;;18.00;10.30;;;;;;;3.79;100.00;101250.22;5015745;28;20116;-79
2021/11/17 04:00:19;;;;;;;20.85;10.05;;;;;;;3.78;100.00;101241.59;5014223;28;20053;-82
2021/11/17 04:03:30;;;;;;;19.45;9.82;;;;;;;3.79;100.00;101242.47;5002241;28;20052;-80
2021/11/17 04:06:21;;;;;;;18.52;9.25;;;;;;;3.80;100.00;101249.41;5001748;28;20124;-83
2021/11/17 04:09:35;;;;;;;16.90;9.18;;;;;;;3.76;100.00;101252.75;4994617;28;20172;-79
2021/11/17 04:12:19;;;;;;;19.30;9.05;;;;;;;3.70;100.00;101253.41;5007756;28;20873;-80
2021/11/17 04:15:20;;;;;;;22.65;9.80;;;;;;;3.67;100.00;101255.06;5012563;28;20100;-81
2021/11/17 04:18:26;;;;;;;13.88;8.40;;;;;;;3.63;100.00;101248.91;5018825;28;20053;-80
2021/11/17 04:20:56;;;;;;;18.30;8.75;;;;;;;3.58;100.00;101253.94;4989280;28;20049;-86
2021/11/17 04:23:53;;;;;;;19.75;7.85;;;;;;;3.59;100.00;101254.84;5018547;28;20083;-77
2021/11/17 04:26:44;;;;;;;19.55;8.70;;;;;;;3.59;100.00;101255.72;5000990;28;20041;-80
2021/11/17 04:29:46;;;;;;;19.55;8.82;;;;;;;3.60;100.00;101257.47;5017592;28;20867;-81
2021/11/17 04:33:04;;;;;;;19.92;9.00;;;;;;;3.60;100.00;101254.00;5017963;28;20369;-79
2021/11/17 04:36:06;;;;;;;18.75;7.50;;;;;;;3.56;100.00;101250.44;5009275;28;20083;-78
2021/11/17 04:38:52;;;;;;;19.48;8.05;;;;;;;3.55;100.00;101251.28;5003292;28;20059;-78
2021/11/17 04:41:51;;;;;;;19.70;8.65;;;;;;;3.54;100.00;101253.84;5016885;28;20701;-77
2021/11/17 04:44:48;;;;;;;19.85;8.80;;;;;;;3.52;100.00;101245.13;5000724;28;20045;-82
2021/11/17 04:47:29;;;;;;;15.18;7.47;;;;;;;3.51;100.00;101251.13;5014667;28;20127;-81
2021/11/17 04:50:32;;;;;;;16.70;8.60;;;;;;;3.52;100.00;101250.31;5013665;28;20057;-77
2021/11/17 04:53:31;;;;;;;21.42;9.13;;;;;;;3.51;100.00;101257.19;5011238;28;20694;-79
2021/11/17 04:56:27;;;;;;;16.52;8.05;;;;;;;3.52;100.00;101258.97;5011270;28;20052;-82
2021/11/17 04:59:29;;;;;;;17.65;8.13;;;;;;;3.52;100.00;101248.63;5017583;28;20049;-84
2021/11/17 05:02:10;;;;;;;19.30;8.98;;;;;;;3.50;100.00;101255.44;5009051;28;20041;-87
2021/11/17 05:04:43;;;;;;;18.13;8.27;;;;;;;3.50;100.00;101257.16;5016410;28;20080;-79
2021/11/17 05:07:42;;;;;;;20.33;9.65;;;;;;;3.50;100.00;101252.00;5014640;28;20033;-80
2021/11/17 05:10:58;;;;;;;19.27;8.95;;;;;;;3.51;100.00;101259.78;5011268;28;20057;-82
2021/11/17 05:13:49;;;;;;;19.20;8.30;;;;;;;3.57;100.00;101266.84;5007054;28;20065;-80
2021/11/17 05:16:37;;;;;;;15.93;7.18;;;;;;;3.55;100.00;101258.19;4981905;28;20053;-80
2021/11/17 05:19:33;;;;;;;20.48;8.93;;;;;;;3.57;100.00;101249.63;5014972;28;20492;-82
2021/11/17 05:22:31;;;;;;;16.88;9.10;;;;;;;3.59;100.00;101244.50;5036916;28;20128;-81
2021/11/17 05:25:16;;;;;;;16.75;8.38;;;;;;;3.59;100.00;101245.34;5000850;28;20041;-80
2021/11/17 05:28:17;;;;;;;19.23;9.48;;;;;;;3.59;100.00;101244.50;5015712;28;20041;-78
2021/11/17 05:31:28;;;;;;;18.98;8.85;;;;;;;3.62;100.00;101239.38;5001292;28;20930;-78
2021/11/17 05:34:17;;;;;;;17.55;9.82;;;;;;;3.67;100.00;101249.88;5016084;28;20205;-78
2021/11/17 05:36:53;;;;;;;16.25;8.30;;;;;;;3.69;100.00;101253.38;5018116;28;20046;-80
2021/11/17 05:39:44;;;;;;;16.95;8.82;;;;;;;3.71;100.00;101252.59;5015991;28;20046;-80
2021/11/17 05:42:50;;;;;;;18.15;8.65;;;;;;;3.75;100.00;101257.03;5019323;28;20534;-78
2021/11/17 05:45:37;;;;;;;16.55;8.63;;;;;;;3.76;100.00;101253.59;4989316;28;20582;-81
2021/11/17 05:48:19;;;;;;;18.35;9.20;;;;;;;3.76;100.00;101248.44;5018044;28;20041;-78
2021/11/17 05:51:19;;;;;;;16.83;9.32;;;;;;;3.75;100.00;101249.25;5019416;28;20127;-82
2021/11/17 05:54:31;;;;;;;17.88;9.55;;;;;;;3.77;100.00;101244.16;5018975;28;20120;-79
2021/11/17 05:57:38;;;;;;;16.27;8.15;;;;;;;3.79;100.00;101245.94;5003100;28;20045;-80
2021/11/17 06:00:33;;;;;;;14.57;8.18;;;;;;;3.79;100.00;101243.34;5002675;28;20052;-79
2021/11/17 06:03:40;;;;;;;19.67;9.75;;;;;;;3.81;100.00;101238.22;5016617;28;20518;-78
2021/11/17 06:06:07;;;;;;;20.52;9.35;;;;;;;3.80;100.00;101236.44;5016322;28;20038;-77
2021/11/17 06:08:33;;;;;;;19.02;8.30;;;;;;;3.80;100.00;101239.03;5019696;28;20045;-82
2021/11/17 06:11:04;;;;;;;13.90;8.30;;;;;;;3.82;100.00;101237.38;5019333;28;20034;-80
2021/11/17 06:13:32;;;;;;;16.58;9.15;;;;;;;3.82;100.00;101239.97;5024147;28;20046;-79
2021/11/17 06:15:59;;;;;;;17.88;9.07;;;;;;;3.85;100.00;101242.63;5013490;28;20077;-79
2021/11/17 06:18:32;;;;;;;15.50;8.05;;;;;;;3.87;100.00;101240.97;5017573;28;20443;-79
2021/11/17 06:21:02;;;;;;;13.57;6.95;;;;;;;3.87;100.00;101240.09;5021333;28;20930;-79
2021/11/17 06:23:45;;;;;;;15.07;7.45;;;;;;;3.87;100.00;101235.81;5018799;28;20056;-80
2021/11/17 06:26:18;;;;;;;13.90;7.60;;;;;;;3.90;100.00;101253.13;5021787;28;20045;-78
2021/11/17 06:28:52;;;;;;;12.98;6.65;;;;;;;3.94;100.00;101254.97;5020867;28;20036;-79
2021/11/17 06:31:19;;;;;;;13.30;6.95;;;;;;;3.98;100.00;101267.19;5009622;28;20038;-83
2021/11/17 06:33:46;;;;;;;15.07;7.20;;;;;;;4.00;100.00;101270.66;5024235;28;20772;-84
2021/11/17 06:36:13;;;;;;;16.17;6.57;;;;;;;4.04;100.00;101266.47;5007071;28;20042;-78
2021/11/17 06:38:39;;;;;;;13.75;8.00;;;;;;;4.09;100.00;101267.47;5038508;28;20033;-83
2021/11/17 06:41:06;;;;;;;11.80;7.13;;;;;;;4.09;100.00;101276.13;5043995;28;20061;-84
2021/11/17 06:43:32;;;;;;;13.80;7.55;;;;;;;4.07;100.00;101282.09;5043623;28;20050;-83
2021/11/17 06:46:00;;;;;;;14.95;7.28;;;;;;;4.02;100.00;101279.38;5039904;28;20051;-77
2021/11/17 06:48:29;;;;;;;13.25;7.22;;;;;;;3.99;100.00;101281.88;5041365;28;20052;-78
2021/11/17 06:50:56;;;;;;;14.35;7.70;;;;;;;3.94;100.00;101278.28;5040077;28;20299;-79
2021/11/17 06:53:25;;;;;;;14.73;7.40;;;;;;;3.91;100.00;101273.00;5032289;28;20037;-79
2021/11/17 06:55:52;;;;;;;18.63;8.15;;;;;;;3.88;100.00;101275.53;5027147;28;20055;-79
2021/11/17 06:58:19;;;;;;;13.77;7.30;;;;;;;3.85;100.00;101265.94;5026506;28;20042;-77
2021/11/17 07:00:48;;;;;;;12.98;7.18;;;;;;;3.85;100.00;101271.13;5007307;28;20782;-78
2021/11/17 07:03:16;;;;;;;17.05;9.00;;;;;;;3.83;100.00;101270.19;5010939;28;20523;-78
2021/11/17 07:05:43;;;;;;;18.45;8.00;;;;;;;3.75;100.00;101261.34;5024370;28;20049;-78
2021/11/17 07:08:09;;;;;;;16.85;7.80;;;;;;;3.64;100.00;101253.28;5022693;28;20037;-81
2021/11/17 07:10:38;;;;;;;18.92;9.15;;;;;;;3.60;100.00;101246.25;5023360;28;20041;-81
2021/11/17 07:13:07;;;;;;;15.90;8.55;;;;;;;3.59;100.00;101247.94;5019232;28;20477;-78
2021/11/17 07:15:36;;;;;;;16.58;8.20;;;;;;;3.65;100.00;101252.44;5020656;28;20049;-82
2021/11/17 07:18:03;;;;;;;15.15;8.15;;;;;;;3.75;100.00;101259.63;5023005;28;20058;-79
2021/11/17 07:20:31;;;;;;;18.55;8.85;;;;;;;3.87;100.00;101255.63;5006060;28;20045;-80
2021/11/17 07:22:57;;;;;;;16.48;8.70;;;;;;;3.99;100.00;101263.75;5019739;28;20046;-80
2021/11/17 07:25:24;;;;;;;16.92;9.57;;;;;;;4.10;100.00;101264.03;5007191;28;20064;-80
2021/11/17 07:27:52;;;;;;;13.93;7.57;;;;;;;4.17;100.00;101265.09;5018833;28;20057;-83
2021/11/17 07:30:24;;;;;;;14.07;8.23;;;;;;;4.21;100.00;101260.03;5022711;28;20065;-79
2021/11/17 07:32:51;;;;;;;15.48;7.22;;;;;;;4.29;100.00;101258.53;5005424;28;20141;-81
2021/11/17 07:35:23;;;;;;;15.95;8.15;;;;;;;4.38;100.00;101244.03;5019853;28;20041;-79
2021/11/17 07:37:50;;;;;;;15.43;8.18;;;;;;;4.45;100.00;101236.44;5017262;28;20041;-83
2021/11/17 07:40:18;;;;;;;16.95;8.05;;;;;;;4.52;100.00;101224.53;5036027;28;20084;-78
2021/11/17 07:42:45;;;;;;;14.98;6.57;;;;;;;4.59;100.00;101229.03;5024487;28;20790;-77
2021/11/17 07:45:15;;;;;;;16.08;7.93;;;;;;;4.66;100.00;101229.19;5019539;28;20041;-82
2021/11/17 07:47:42;;;;;;;14.55;7.50;;;;;;;4.65;100.00;101228.31;5019573;28;20046;-80
2021/11/17 07:50:11;;;;;;;13.38;8.10;;;;;;;4.63;100.00;101225.69;5001696;28;20136;-82
2021/11/17 07:52:38;;;;;;;16.05;7.82;;;;;;;4.57;100.00;101219.47;5016075;28;20118;-78
2021/11/17 07:55:07;;;;;;;15.73;9.48;;;;;;;4.42;100.00;101200.09;5017933;28;20515;-80
2021/11/17 07:57:33;;;;;;;18.90;9.45;;;;;;;4.21;100.00;101195.25;5035720;28;20085;-79
2021/11/17 08:00:00;;;;;;;15.18;7.97;;;;;;;4.03;100.00;101195.66;5016671;28;20113;-78
2021/11/17 08:02:27;;;;;;;13.80;7.68;;;;;;;3.90;100.00;101202.19;5001377;28;20049;-80
2021/11/17 08:04:54;;;;;;;16.67;8.60;;;;;;;3.79;100.00;101201.03;5010249;28;20054;-82
2021/11/17 08:07:20;;;;;;;20.23;8.40;;;;;;;3.73;100.00;101216.38;5001890;28;20045;-77
2021/11/17 08:09:50;;;;;;;14.90;8.13;;;;;;;3.66;100.00;101214.47;5018821;28;20049;-77
2021/11/17 08:12:19;;;;;;;19.77;9.80;;;;;;;3.61;100.00;101217.81;5022598;28;20025;-80
2021/11/17 08:14:45;;;;;;;20.25;9.15;;;;;;;3.59;100.00;101211.69;5018244;28;20057;-79
2021/11/17 08:17:12;;;;;;;17.85;8.07;;;;;;;3.59;100.00;101216.00;5001946;28;20504;-81
2021/11/17 08:19:38;;;;;;;17.08;8.43;;;;;;;3.59;100.00;101223.78;5019135;28;20051;-78
2021/11/17 08:22:07;;;;;;;18.92;9.85;;;;;;;3.61;100.00;101238.53;4999902;28;20111;-77
2021/11/17 08:24:39;;;;;;;19.40;9.52;;;;;;;3.64;100.00;101241.19;4999905;28;20546;-83
2021/11/17 08:27:13;;;;;;;20.20;8.75;;;;;;;3.69;100.00;101241.34;5018905;28;20101;-83
2021/11/17 08:29:40;;;;;;;21.10;10.05;;;;;;;3.76;100.00;101250.16;5002135;28;20056;-80
2021/11/17 08:32:08;;;;;;;34.97;11.50;;;;;;;3.86;100.00;101259.94;5004658;28;20684;-81
2021/11/17 08:34:35;;;;;;;21.95;9.48;;;;;;;3.91;100.00;101255.78;5020225;28;20056;-82
2021/11/17 08:37:01;;;;;;;25.40;10.50;;;;;;;3.93;100.00;101256.66;5017354;28;20064;-80
2021/11/17 08:39:31;;;;;;;17.65;9.15;;;;;;;3.95;100.00;101260.19;5010912;28;20050;-82
2021/11/17 08:41:58;;;;;;;23.83;9.68;;;;;;;3.98;100.00;101249.91;5019221;28;20042;-79
2021/11/17 08:44:25;;;;;;;21.35;9.32;;;;;;;4.04;100.00;101233.66;5004841;28;20033;-77
2021/11/17 08:46:52;;;;;;;18.40;8.40;;;;;;;4.18;100.00;101230.56;5021098;28;20057;-82
2021/11/17 08:49:18;;;;;;;12.88;7.22;;;;;;;4.38;100.00;101228.47;5017466;28;20041;-78
2021/11/17 08:51:46;;;;;;;13.23;7.15;;;;;;;4.63;100.00;101228.25;5002638;28;20045;-78
2021/11/17 08:54:13;;;;;;;20.33;9.73;;;;;;;4.86;100.00;101229.66;5000583;28;21797;-78
2021/11/17 08:56:39;;;;;;;15.52;7.75;;;;;;;5.10;100.00;101234.56;5000882;28;20045;-79
2021/11/17 08:59:07;;;;;;;11.95;7.72;;;;;;;5.39;98.80;101234.31;5011618;28;20053;-81
2021/11/17 09:01:35;;;;;;;12.73;7.53;;;;;;;5.57;97.86;101239.03;5016242;28;20065;-80
2021/11/17 09:04:06;;;;;;;10.45;6.07;;;;;;;5.69;96.11;101241.00;5017062;28;20083;-79
2021/11/17 09:06:42;;;;;;;11.27;5.57;;;;;;;5.81;94.60;101236.06;5001423;28;20060;-77
2021/11/17 09:09:09;;;;;;;9.55;5.90;;;;;;;5.82;93.64;101229.16;5001733;28;20041;-78
2021/11/17 09:11:38;;;;;;;8.73;5.28;;;;;;;5.84;93.58;101237.84;5015516;28;20042;-80
2021/11/17 09:14:07;;;;;;;14.75;6.72;;;;;;;5.86;94.09;101247.41;5017831;28;20425;-79
2021/11/17 09:16:35;;;;;;;9.07;6.07;;;;;;;5.91;93.99;101253.59;5019602;28;20111;-79
2021/11/17 09:19:05;;;;;;;9.70;5.55;;;;;;;6.00;94.62;101265.03;5002249;28;20049;-76
2021/11/17 09:21:34;;;;;;;9.95;5.32;;;;;;;6.04;93.59;101266.88;5017587;28;20145;-85
2021/11/17 09:24:09;;;;;;;13.90;7.20;;;;;;;6.05;94.04;101263.41;5034211;28;20132;-80
2021/11/17 09:26:38;;;;;;;11.23;6.03;;;;;;;6.10;93.52;101261.75;5015094;28;20044;-82
2021/11/17 09:29:05;;;;;;;12.90;7.10;;;;;;;6.12;92.91;101262.69;5017100;28;20049;-80
2021/11/17 09:31:35;;;;;;;7.43;5.25;;;;;;;6.11;93.27;101256.63;5017927;28;20168;-79
2021/11/17 09:34:02;;;;;;;11.07;6.32;;;;;;;6.16;93.09;101256.69;5018186;28;20120;-80
2021/11/17 09:36:36;;;;;;;11.52;6.53;;;;;;;6.16;92.47;101261.88;5015864;28;20041;-82
2021/11/17 09:39:07;;;;;;;10.15;6.20;;;;;;;6.16;93.26;101269.69;5000185;28;20365;-78
2021/11/17 09:41:43;;;;;;;7.28;5.47;;;;;;;6.16;93.20;101267.09;5017179;28;20056;-81
2021/11/17 09:44:25;;;;;;;12.30;6.30;;;;;;;6.22;93.20;101274.13;5016657;28;20128;-81
2021/11/17 09:46:54;;;;;;;12.13;6.65;;;;;;;6.20;92.68;101262.81;5020915;28;20495;-79
2021/11/17 09:49:28;;;;;;;10.32;7.10;;;;;;;6.16;92.72;101268.81;5021713;28;20049;-77
2021/11/17 09:52:02;;;;;;;11.48;6.68;;;;;;;6.11;92.89;101264.41;5038280;28;20053;-78
2021/11/17 09:55:08;;;;;;;11.85;7.30;;;;;;;6.10;93.68;101266.97;5008794;28;20058;-79
2021/11/17 09:57:42;;;;;;;13.77;7.72;;;;;;;6.10;94.18;101262.66;5016060;28;20067;-78
2021/11/17 10:00:31;;;;;;;11.20;7.35;;;;;;;6.07;94.45;101265.19;5039382;28;20095;-78
2021/11/17 10:03:06;;;;;;;14.80;7.45;;;;;;;6.06;95.10;101257.34;5002793;28;21521;-82
2021/11/17 10:06:23;;;;;;;13.55;8.82;;;;;;;6.07;95.34;101243.53;5020410;28;20718;-77
2021/11/17 10:15:04;;;;;;;17.40;8.25;;;;;;;6.37;95.09;101242.34;5017389;28;20400;-77
2021/11/17 10:17:41;;;;;;;11.18;7.15;;;;;;;6.49;95.29;101241.66;5022216;28;20500;-78
2021/11/17 10:20:19;;;;;;;10.70;7.18;;;;;;;6.57;94.52;101245.28;5018899;28;20041;-80
2021/11/17 10:23:16;;;;;;;12.48;7.47;;;;;;;6.66;94.46;101244.56;5038463;28;20455;-79
2021/11/17 10:26:08;;;;;;;8.85;5.97;;;;;;;6.74;94.04;101242.94;5019449;28;20041;-78
2021/11/17 10:28:40;;;;;;;11.90;6.80;;;;;;;6.74;93.62;101238.63;5035147;28;20660;-81
2021/11/17 10:31:16;;;;;;;13.55;9.02;;;;;;;6.74;93.57;101225.63;5024874;28;20115;-79
2021/11/17 10:34:05;;;;;;;13.77;8.45;;;;;;;6.74;93.27;101224.72;5027009;28;20073;-77
2021/11/17 10:36:47;;;;;;;13.13;8.20;;;;;;;6.77;93.04;101230.00;5032450;28;20093;-79
2021/11/17 10:39:24;;;;;;;16.90;9.90;;;;;;;6.83;93.07;101224.00;5029726;28;20876;-76
2021/11/17 10:42:00;;;;;;;15.23;9.23;;;;;;;6.92;93.29;101221.56;5039533;28;20057;-78
2021/11/17 10:45:09;;;;;;;16.40;10.02;;;;;;;6.99;91.93;101222.50;5014408;28;20510;-78
2021/11/17 10:47:49;;;;;;;13.75;9.25;;;;;;;7.02;92.26;101220.84;5028735;28;20535;-83
2021/11/17 10:50:41;;;;;;;17.08;9.85;;;;;;;7.02;92.02;101223.44;5027267;28;20052;-83
2021/11/17 10:53:14;;;;;;;17.00;9.20;;;;;;;6.94;91.55;101222.47;5025773;28;20116;-80
2021/11/17 10:55:53;;;;;;;15.10;9.80;;;;;;;6.89;92.11;101221.50;5020082;28;20444;-77
2021/11/17 10:58:35;;;;;;;17.20;10.35;;;;;;;6.87;92.54;101231.00;5021954;28;20046;-82
2021/11/17 11:01:13;;;;;;;15.80;9.45;;;;;;;6.86;92.45;101222.34;5006134;28;20605;-77
2021/11/17 11:03:45;;;;;;;14.35;10.48;;;;;;;6.83;92.46;101221.41;5023639;28;20060;-78
2021/11/17 11:06:39;;;;;;;15.52;9.60;;;;;;;6.73;93.29;101220.41;5024254;28;20044;-76
2021/11/17 11:09:25;;;;;;;17.90;10.68;;;;;;;6.65;94.13;101215.06;5022053;28;20130;-83
2021/11/17 11:11:55;;;;;;;18.85;10.38;;;;;;;6.59;94.85;101213.22;5020456;28;20065;-78
2021/11/17 11:14:47;;;;;;;20.48;12.50;;;;;;;6.53;95.38;101215.75;5016112;28;20124;-77
2021/11/17 11:17:36;;;;;;;20.75;11.43;;;;;;;6.44;96.21;101206.06;5019771;28;20168;-79
2021/11/17 11:20:17;;;;;;;19.77;12.00;;;;;;;6.38;97.15;101213.75;5014664;28;20050;-80
2021/11/17 11:22:59;;;;;;;18.70;11.18;;;;;;;6.36;97.90;101209.38;5021420;28;20156;-79
2021/11/17 11:25:53;;;;;;;28.40;13.63;;;;;;;6.34;98.28;101213.69;5019643;28;20205;-81
2021/11/17 11:28:23;;;;;;;20.13;12.05;;;;;;;6.32;100.00;101216.25;5019522;28;20048;-81
2021/11/17 11:31:03;;;;;;;22.83;11.18;;;;;;;6.33;100.00;101206.72;5018459;28;20045;-79
2021/11/17 11:33:56;;;;;;;19.60;11.85;;;;;;;6.30;100.00;101207.56;5016021;28;20164;-80
2021/11/17 11:36:23;;;;;;;17.63;10.77;;;;;;;6.28;100.00;101209.25;5021018;28;20582;-77
2021/11/17 11:38:59;;;;;;;23.33;11.13;;;;;;;6.27;100.00;101213.56;5019746;28;20526;-78
2021/11/17 11:42:07;;;;;;;19.20;11.93;;;;;;;6.30;100.00;101207.56;5020062;28;20725;-78
2021/11/17 11:44:49;;;;;;;20.20;11.75;;;;;;;6.32;100.00;101213.63;5029486;28;20073;-79
2021/11/17 11:47:16;;;;;;;20.45;11.50;;;;;;;6.36;100.00;101215.47;5020659;28;20173;-78
2021/11/17 11:50:23;;;;;;;18.13;10.85;;;;;;;6.38;100.00;101221.56;5019321;28;20046;-78
2021/11/17 11:53:29;;;;;;;18.02;10.52;;;;;;;6.41;100.00;101210.34;5022714;28;20818;-81
2021/11/17 11:56:04;;;;;;;20.83;11.32;;;;;;;6.48;100.00;101213.91;5015848;28;20111;-80
2021/11/17 11:58:39;;;;;;;15.63;10.43;;;;;;;6.53;100.00;101213.16;5004208;28;20053;-78
2021/11/17 12:01:26;;;;;;;14.25;7.93;;;;;;;6.57;100.00;101217.56;5019146;28;20816;-79
2021/11/17 12:04:13;;;;;;;16.55;9.65;;;;;;;6.56;100.00;101215.78;5003246;28;20152;-83
2021/11/17 12:06:55;;;;;;;14.20;8.13;;;;;;;6.54;100.00;101221.81;5002475;28;20531;-80
2021/11/17 12:09:39;;;;;;;13.80;8.43;;;;;;;6.56;99.63;101223.59;5003800;28;20075;-80
2021/11/17 12:12:19;;;;;;;15.80;9.27;;;;;;;6.55;100.00;101223.56;5018696;28;20104;-78
2021/11/17 12:14:55;;;;;;;15.88;8.68;;;;;;;6.54;100.00;101227.88;5004576;28;20586;-84
2021/11/17 12:17:27;;;;;;;15.45;8.52;;;;;;;6.55;100.00;101224.44;5021492;28;20343;-83
2021/11/17 12:20:18;;;;;;;14.75;8.50;;;;;;;6.53;100.00;101222.66;5025239;28;20383;-80
2021/11/17 12:22:53;;;;;;;16.30;9.15;;;;;;;6.47;100.00;101226.03;5022875;28;20634;-81
2021/11/17 12:25:30;;;;;;;16.42;8.98;;;;;;;6.44;100.00;101232.06;5020480;28;20124;-81
2021/11/17 12:28:05;;;;;;;16.23;9.88;;;;;;;6.44;100.00;101234.66;5001060;28;20038;-79
2021/11/17 12:30:53;;;;;;;14.65;9.75;;;;;;;6.46;100.00;101235.56;5018353;28;20076;-78
2021/11/17 12:33:50;;;;;;;19.25;10.63;;;;;;;6.46;100.00;101235.56;5017816;28;20052;-80
2021/11/17 12:36:27;;;;;;;15.10;9.25;;;;;;;6.49;100.00;101236.47;5003968;28;20056;-80
2021/11/17 12:38:56;;;;;;;14.15;10.05;;;;;;;6.51;100.00;101235.66;5037988;28;20043;-82
2021/11/17 12:41:30;;;;;;;13.82;9.05;;;;;;;6.52;100.00;101234.81;5004575;28;20139;-81
2021/11/17 12:44:02;;;;;;;;;;;;;;;6.51;100.00;101246.06;5021054;28;20052;-85
2021/11/17 12:47:03;;;;;;;17.42;10.27;;;;;;;6.52;100.00;101249.50;5002827;28;19933;-79
2021/11/17 12:49:42;;;;;;;22.02;10.77;;;;;;;6.49;100.00;101252.06;5011049;28;20081;-83
2021/11/17 12:52:22;;;;;;;22.27;11.27;;;;;;;6.49;100.00;101250.34;5019543;28;20548;-80
2021/11/17 12:55:16;;;;;;;19.95;10.77;;;;;;;6.48;100.00;101256.41;5016973;28;20056;-85
2021/11/17 12:58:04;;;;;;;24.10;12.57;;;;;;;6.43;100.00;101264.13;5018818;28;20045;-88
2021/11/17 13:00:31;;;;;;;20.85;11.88;;;;;;;6.40;100.00;101258.88;4999986;28;20114;-85
2021/11/17 13:03:06;;;;;;;23.92;14.00;;;;;;;6.38;100.00;101264.91;5017650;28;20041;-81
2021/11/17 13:05:43;;;;;;;31.25;14.20;;;;;;;6.33;100.00;101258.75;5017054;28;20045;-86
2021/11/17 13:08:15;;;;;;;26.27;13.98;;;;;;;6.29;100.00;101263.84;5014994;28;21191;-86
2021/11/17 13:10:49;;;;;;;27.88;14.30;;;;;;;6.24;100.00;101269.84;5017473;28;20041;-85
2021/11/17 13:13:50;;;;;;;25.45;14.43;;;;;;;6.24;100.00;101268.09;5014934;28;20056;-82
2021/11/17 13:16:40;;;;;;;28.27;14.38;;;;;;;6.23;100.00;101257.69;5013415;28;20045;-87
2021/11/17 13:19:33;;;;;;;22.83;14.15;;;;;;;6.24;100.00;101259.44;5001118;28;20046;-82
2021/11/17 13:22:34;;;;;;;30.20;13.55;;;;;;;6.22;100.00;101253.31;5020084;28;20127;-82
2021/11/17 13:25:28;;;;;;;28.05;14.35;;;;;;;6.23;100.00;101255.06;5012000;28;20081;-87
2021/11/17 13:27:58;;;;;;;;;;;;;;;6.27;100.00;101255.16;5019494;28;20044;-83
2021/11/17 13:30:40;;;;;;;23.05;14.25;;;;;;;6.32;100.00;101251.78;5021024;28;20355;-79
2021/11/17 13:33:30;;;;;;;22.30;12.68;;;;;;;6.40;100.00;101256.28;5019743;28;20054;-85
2021/11/17 13:36:05;;;;;;;20.88;12.68;;;;;;;6.46;100.00;101255.50;5013400;28;20384;-79
2021/11/17 13:38:32;;;;;;;23.63;13.27;;;;;;;6.51;100.00;101251.25;5017018;28;20061;-78
2021/11/17 13:41:05;;;;;;;22.95;13.35;;;;;;;6.56;100.00;101253.94;5016708;28;20487;-81
2021/11/17 13:43:33;;;;;;;20.70;10.77;;;;;;;6.61;100.00;101250.56;5013208;28;20157;-82
2021/11/17 13:46:08;;;;;;;23.60;11.02;;;;;;;6.66;100.00;101235.00;5016827;28;20057;-81
2021/11/17 13:48:39;;;;;;;25.50;12.02;;;;;;;6.72;100.00;101226.47;5018517;28;20091;-81
2021/11/17 13:51:37;;;;;;;;;;;;;;;;;;;;;
2021/11/17 13:54:04;;;;;;;18.20;10.52;;;;;;;6.89;100.00;101192.88;5040314;28;20407;-77
2021/11/17 13:56:34;;;;;;;20.73;11.52;;;;;;;6.97;100.00;101221.63;5021086;28;20049;-78
2021/11/17 13:59:00;;;;;;;19.92;9.82;;;;;;;6.94;100.00;101238.06;5015296;28;20078;-82
2021/11/17 14:01:27;;;;;;;16.80;10.65;;;;;;;6.94;100.00;101241.53;5020934;28;20049;-80
2021/11/17 14:03:53;;;;;;;16.25;10.10;;;;;;;6.93;100.00;101242.38;5005498;28;20041;-87
2021/11/17 14:06:22;;;;;;;19.10;9.88;;;;;;;6.94;100.00;101241.53;5043063;28;20062;-81
2021/11/17 14:08:50;;;;;;;19.40;11.65;;;;;;;6.94;100.00;101244.16;5017823;28;20113;-80
2021/11/17 14:11:18;;;;;;;15.45;9.85;;;;;;;7.00;100.00;101245.09;5020719;28;20122;-81
2021/11/17 14:13:47;;;;;;;17.10;9.77;;;;;;;7.03;100.00;101243.41;5022829;28;20037;-77
2021/11/17 14:16:16;;;;;;;20.00;10.95;;;;;;;7.06;100.00;101250.41;5001011;28;20127;-78
2021/11/17 14:18:43;;;;;;;14.90;10.05;;;;;;;7.04;100.00;101255.59;5020158;28;20053;-81
2021/11/17 14:21:11;;;;;;;19.27;9.25;;;;;;;7.03;100.00;101256.44;5018564;28;20049;-77
2021/11/17 14:23:39;;;;;;;18.60;10.30;;;;;;;6.94;100.00;101259.75;5022387;28;20053;-79
2021/11/17 14:26:12;;;;;;;21.75;10.88;;;;;;;6.83;100.00;101268.25;5015457;28;20045;-81
2021/11/17 14:28:53;;;;;;;23.97;12.30;;;;;;;6.74;100.00;101269.88;5025405;28;20033;-82
2021/11/17 14:31:30;;;;;;;21.70;10.45;;;;;;;6.75;100.00;101275.94;5025666;28;20281;-77
2021/11/17 14:33:59;;;;;;;22.35;11.90;;;;;;;6.82;100.00;101287.31;5044127;28;20104;-81
2021/11/17 14:36:33;;;;;;;36.53;14.88;;;;;;;6.94;100.00;101282.31;5028977;28;20469;-76
2021/11/17 14:39:03;;;;;;;36.85;13.57;;;;;;;6.97;100.00;101286.72;5025898;28;20092;-77
2021/11/17 14:41:30;;;;;;;17.48;10.18;;;;;;;7.01;100.00;101291.09;5022733;28;20599;-77
2021/11/17 14:43:57;;;;;;;19.42;11.50;;;;;;;7.02;100.00;101288.53;5024614;28;20059;-78
2021/11/17 14:46:24;;;;;;;15.50;10.73;;;;;;;7.02;100.00;101292.88;5020987;28;20568;-77
2021/11/17 14:48:50;;;;;;;23.50;12.18;;;;;;;6.99;100.00;101292.78;5024934;28;20042;-76
2021/11/17 14:51:17;;;;;;;30.52;13.73;;;;;;;6.97;100.00;101297.13;5024488;28;20050;-82
2021/11/17 14:53:48;;;;;;;24.75;12.90;;;;;;;6.97;100.00;101299.72;5006006;28;20470;-77